createdAt,value
2018-04-30T00:00:04.177Z,17.70
2018-04-30T00:02:32.566Z,17.50
2018-04-30T00:05:00.202Z,17.50
2018-04-30T00:07:27.786Z,17.40
2018-04-30T00:09:55.396Z,17.30
2018-04-30T00:12:23.030Z,17.20
2018-04-30T00:14:50.598Z,17.10
2018-04-30T00:17:18.235Z,17.00
2018-04-30T00:19:45.858Z,16.50
2018-04-30T00:22:13.477Z,16.00
2018-04-30T00:24:41.088Z,15.60
2018-04-30T00:27:08.709Z,15.30
2018-04-30T00:29:42.522Z,15.10
2018-04-30T00:32:10.145Z,15.00
2018-04-30T00:34:37.726Z,14.70
2018-04-30T00:37:05.293Z,14.70
2018-04-30T00:39:32.904Z,14.60
2018-04-30T00:42:01.205Z,14.40
2018-04-30T00:44:28.765Z,14.40
2018-04-30T00:46:56.357Z,14.30
2018-04-30T00:49:24.013Z,14.30
2018-04-30T00:51:51.617Z,14.20
2018-04-30T00:54:30.997Z,14.10
2018-04-30T00:56:58.537Z,13.90
2018-04-30T00:59:26.116Z,13.80
2018-04-30T01:01:53.682Z,13.80
2018-04-30T01:04:21.298Z,13.70
2018-04-30T01:06:49.629Z,13.70
2018-04-30T01:09:17.192Z,13.60
2018-04-30T01:11:44.841Z,13.60
2018-04-30T01:14:12.428Z,13.60
2018-04-30T01:16:40.034Z,13.50
2018-04-30T01:19:07.598Z,13.50
2018-04-30T01:21:35.134Z,13.50
2018-04-30T01:24:03.501Z,13.50
2018-04-30T01:26:31.099Z,13.40
2018-04-30T01:28:58.726Z,13.40
2018-04-30T01:31:26.321Z,13.40
2018-04-30T01:33:53.977Z,13.40
2018-04-30T01:36:21.569Z,13.40
2018-04-30T01:38:49.209Z,13.30
2018-04-30T01:41:16.762Z,13.30
2018-04-30T01:43:44.377Z,13.30
2018-04-30T01:46:11.956Z,13.30
2018-04-30T01:48:40.323Z,13.20
2018-04-30T01:51:07.921Z,13.20
2018-04-30T01:53:35.499Z,13.20
2018-04-30T01:56:03.057Z,13.20
2018-04-30T01:58:30.609Z,13.20
2018-04-30T02:00:58.232Z,13.10
2018-04-30T02:03:26.609Z,13.10
2018-04-30T02:05:54.922Z,13.10
2018-04-30T02:08:22.553Z,13.00
2018-04-30T02:10:50.909Z,13.00
2018-04-30T02:13:18.521Z,13.00
2018-04-30T02:15:46.137Z,13.00
2018-04-30T02:18:13.729Z,12.90
2018-04-30T02:20:41.384Z,12.80
2018-04-30T02:23:09.002Z,12.70
2018-04-30T02:25:36.629Z,12.60
2018-04-30T02:28:04.195Z,12.50
2018-04-30T02:30:31.770Z,12.40
2018-04-30T02:32:59.411Z,12.30
2018-04-30T02:35:27.034Z,12.20
2018-04-30T02:37:55.442Z,12.10
2018-04-30T02:40:23.077Z,12.10
2018-04-30T02:42:51.448Z,11.90
2018-04-30T02:45:19.792Z,11.90
2018-04-30T02:47:47.397Z,11.90
2018-04-30T02:50:15.778Z,11.80
2018-04-30T02:52:43.347Z,11.70
2018-04-30T02:55:10.907Z,11.60
2018-04-30T02:57:38.482Z,11.50
2018-04-30T03:00:06.091Z,11.40
2018-04-30T03:02:34.497Z,11.10
2018-04-30T03:05:02.095Z,11.10
2018-04-30T03:07:29.712Z,10.90
2018-04-30T03:09:57.363Z,10.60
2018-04-30T03:12:25.719Z,10.20
2018-04-30T03:14:53.332Z,10.20
2018-04-30T03:17:20.914Z,10.20
2018-04-30T03:19:48.526Z,10.10
2018-04-30T03:22:16.903Z,10.00
2018-04-30T03:24:45.235Z,9.90
2018-04-30T03:27:12.813Z,9.90
2018-04-30T03:29:40.377Z,9.80
2018-04-30T03:32:07.966Z,9.70
2018-04-30T03:34:36.313Z,9.50
2018-04-30T03:37:03.917Z,9.50
2018-04-30T03:39:31.460Z,9.50
2018-04-30T03:41:59.850Z,9.50
2018-04-30T03:44:27.481Z,9.40
2018-04-30T03:46:55.054Z,9.40
2018-04-30T03:49:23.428Z,9.40
2018-04-30T03:51:51.770Z,9.40
2018-04-30T03:54:19.392Z,9.40
2018-04-30T03:56:47.032Z,9.40
2018-04-30T03:59:15.436Z,9.30
2018-04-30T04:01:54.880Z,9.30
2018-04-30T04:04:34.262Z,9.30
2018-04-30T04:07:01.834Z,9.30
2018-04-30T04:09:30.210Z,9.30
2018-04-30T04:11:58.584Z,9.30
2018-04-30T04:14:26.178Z,9.30
2018-04-30T04:16:53.811Z,9.40
2018-04-30T04:19:22.133Z,9.40
2018-04-30T04:21:49.733Z,9.40
2018-04-30T04:24:17.333Z,9.40
2018-04-30T04:26:45.715Z,9.40
2018-04-30T04:29:13.314Z,9.40
2018-04-30T04:31:40.893Z,9.50
2018-04-30T04:34:08.458Z,9.60
2018-04-30T04:36:36.078Z,9.60
2018-04-30T04:39:03.641Z,9.60
2018-04-30T04:41:31.213Z,9.70
2018-04-30T04:43:58.796Z,9.70
2018-04-30T04:46:26.422Z,9.80
2018-04-30T04:48:54.082Z,9.80
2018-04-30T04:51:21.653Z,9.90
2018-04-30T04:53:49.309Z,9.90
2018-04-30T04:56:16.955Z,10.00
2018-04-30T04:58:44.698Z,10.00
2018-04-30T05:04:08.270Z,10.10
2018-04-30T05:06:38.556Z,10.20
2018-04-30T05:09:06.178Z,10.20
2018-04-30T05:11:33.748Z,10.20
2018-04-30T05:14:01.350Z,10.30
2018-04-30T05:16:33.421Z,10.30
2018-04-30T05:19:01.011Z,10.40
2018-04-30T05:21:28.627Z,10.50
2018-04-30T05:23:56.255Z,10.50
2018-04-30T05:26:23.847Z,10.60
2018-04-30T05:28:51.453Z,10.70
2018-04-30T05:31:19.866Z,10.80
2018-04-30T05:33:47.430Z,10.70
2018-04-30T05:42:19.617Z,10.90
2018-04-30T05:45:08.314Z,11.00
2018-04-30T05:47:41.025Z,10.90
2018-04-30T05:50:08.694Z,11.00
2018-04-30T05:52:37.097Z,11.30
2018-04-30T05:55:04.717Z,11.20
2018-04-30T05:57:32.331Z,11.20
2018-04-30T06:00:01.842Z,11.00
2018-04-30T06:02:29.465Z,10.90
2018-04-30T06:04:57.101Z,10.90
2018-04-30T06:07:24.701Z,11.00
2018-04-30T06:10:11.598Z,11.10
2018-04-30T06:12:39.929Z,11.10
2018-04-30T06:15:08.402Z,11.10
2018-04-30T06:17:44.289Z,11.10
2018-04-30T06:20:12.700Z,11.20
2018-04-30T06:22:40.244Z,11.10
2018-04-30T06:25:22.895Z,11.20
2018-04-30T06:28:01.341Z,11.30
2018-04-30T06:30:28.941Z,11.40
2018-04-30T06:32:56.518Z,11.50
2018-04-30T06:35:39.375Z,11.50
2018-04-30T06:38:06.974Z,11.50
2018-04-30T06:40:35.319Z,11.50
2018-04-30T06:43:02.933Z,11.50
2018-04-30T06:45:38.305Z,11.50
2018-04-30T06:48:05.893Z,11.60
2018-04-30T06:50:33.531Z,11.70
2018-04-30T06:53:01.175Z,11.80
2018-04-30T06:55:28.744Z,11.80
2018-04-30T06:57:56.321Z,11.90
2018-04-30T07:00:25.037Z,12.10
2018-04-30T07:02:52.541Z,12.30
2018-04-30T07:05:20.141Z,12.40
2018-04-30T07:07:48.498Z,12.50
2018-04-30T07:10:16.143Z,12.50
2018-04-30T07:12:43.743Z,12.70
2018-04-30T07:15:12.073Z,12.80
2018-04-30T07:17:39.671Z,12.80
2018-04-30T07:20:07.340Z,12.80
2018-04-30T07:22:34.852Z,12.90
2018-04-30T07:25:21.766Z,12.70
2018-04-30T07:27:49.366Z,12.70
2018-04-30T07:30:17.700Z,12.90
2018-04-30T07:32:45.390Z,12.90
2018-04-30T07:35:12.990Z,13.20
2018-04-30T07:37:41.357Z,13.40
2018-04-30T07:40:09.698Z,13.80
2018-04-30T07:42:37.325Z,13.70
2018-04-30T07:45:04.934Z,13.70
2018-04-30T07:47:32.566Z,14.00
2018-04-30T07:50:00.136Z,14.40
2018-04-30T07:52:27.788Z,14.40
2018-04-30T07:54:55.413Z,14.50
2018-04-30T07:57:23.052Z,14.80
2018-04-30T07:59:51.403Z,15.90
2018-04-30T08:02:19.001Z,15.90
2018-04-30T08:04:47.396Z,16.40
2018-04-30T08:07:14.981Z,16.40
2018-04-30T08:09:42.554Z,16.50
2018-04-30T08:12:10.122Z,16.50
2018-04-30T08:14:37.688Z,17.20
2018-04-30T08:17:05.339Z,17.90
2018-04-30T08:19:32.945Z,18.20
2018-04-30T08:22:01.268Z,18.20
2018-04-30T08:24:28.853Z,18.10
2018-04-30T08:26:56.521Z,18.90
2018-04-30T08:29:24.095Z,20.40
2018-04-30T08:31:52.454Z,21.90
2018-04-30T08:34:20.057Z,21.90
2018-04-30T08:36:47.644Z,23.40
2018-04-30T08:39:15.189Z,22.80
2018-04-30T08:41:42.811Z,21.50
2018-04-30T08:44:13.093Z,21.80
2018-04-30T08:46:40.684Z,21.80
2018-04-30T08:49:08.286Z,21.60
2018-04-30T08:51:36.307Z,20.50
2018-04-30T08:54:03.871Z,19.80
2018-04-30T08:56:31.456Z,20.10
2018-04-30T08:58:59.815Z,21.30
2018-04-30T09:01:27.396Z,21.30
2018-04-30T09:04:05.550Z,20.70
2018-04-30T09:06:43.459Z,20.60
2018-04-30T09:09:11.108Z,21.90
2018-04-30T09:11:43.998Z,21.80
2018-04-30T09:14:11.590Z,22.50
2018-04-30T09:16:39.173Z,22.60
2018-04-30T09:19:06.754Z,22.20
2018-04-30T09:21:34.309Z,21.60
2018-04-30T09:24:01.928Z,21.50
2018-04-30T09:26:29.492Z,22.70
2018-04-30T09:28:57.062Z,22.70
2018-04-30T09:31:25.445Z,22.80
2018-04-30T09:33:53.818Z,23.40
2018-04-30T09:36:22.169Z,22.00
2018-04-30T09:38:49.731Z,22.00
2018-04-30T09:41:17.308Z,22.10
2018-04-30T09:43:44.922Z,22.40
2018-04-30T09:46:12.530Z,21.70
2018-04-30T09:48:40.099Z,21.20
2018-04-30T09:51:08.475Z,23.70
2018-04-30T09:53:36.870Z,23.60
2018-04-30T09:56:04.422Z,23.60
2018-04-30T09:58:32.795Z,23.70
2018-04-30T10:01:01.197Z,23.30
2018-04-30T10:03:28.816Z,23.20
2018-04-30T10:05:56.386Z,22.80
2018-04-30T10:08:24.006Z,24.00
2018-04-30T10:10:51.605Z,23.80
2018-04-30T10:13:19.209Z,22.60
2018-04-30T10:15:46.838Z,23.90
2018-04-30T10:18:15.171Z,23.40
2018-04-30T10:20:42.792Z,23.40
2018-04-30T10:23:10.409Z,22.80
2018-04-30T10:25:37.974Z,23.30
2018-04-30T10:28:05.550Z,22.00
2018-04-30T10:30:33.924Z,22.20
2018-04-30T10:33:02.255Z,22.20
2018-04-30T10:35:29.808Z,22.20
2018-04-30T10:37:57.452Z,21.30
2018-04-30T10:40:25.794Z,22.20
2018-04-30T10:42:53.427Z,22.20
2018-04-30T10:45:21.057Z,22.40
2018-04-30T10:47:48.665Z,21.70
2018-04-30T10:50:16.290Z,21.70
2018-04-30T10:52:43.932Z,21.40
2018-04-30T10:55:11.519Z,20.70
2018-04-30T10:57:39.149Z,21.10
2018-04-30T11:00:06.755Z,21.60
2018-04-30T11:02:34.409Z,21.90
2018-04-30T11:05:02.706Z,22.30
2018-04-30T11:07:30.341Z,22.30
2018-04-30T11:09:57.946Z,22.00
2018-04-30T11:12:26.373Z,23.10
2018-04-30T11:14:54.657Z,23.20
2018-04-30T11:17:22.268Z,23.10
2018-04-30T11:19:50.633Z,21.50
2018-04-30T11:22:18.223Z,21.40
2018-04-30T11:24:45.819Z,20.90
2018-04-30T11:27:13.397Z,21.80
2018-04-30T11:29:40.958Z,22.20
2018-04-30T11:32:08.570Z,21.60
2018-04-30T11:34:36.161Z,21.90
2018-04-30T11:37:03.786Z,21.80
2018-04-30T11:39:31.415Z,21.90
2018-04-30T11:41:59.765Z,22.20
2018-04-30T11:44:27.376Z,22.10
2018-04-30T11:46:55.050Z,21.40
2018-04-30T11:49:22.685Z,21.80
2018-04-30T11:51:50.333Z,21.70
2018-04-30T11:54:18.760Z,21.90
2018-04-30T11:56:46.366Z,21.80
2018-04-30T11:59:13.977Z,22.20
2018-04-30T12:01:41.605Z,22.60
2018-04-30T12:04:09.987Z,21.80
2018-04-30T12:06:37.548Z,21.80
2018-04-30T12:09:05.150Z,21.40
2018-04-30T12:11:32.784Z,21.90
2018-04-30T12:14:00.408Z,23.10
2018-04-30T12:16:28.840Z,22.30
2018-04-30T12:18:56.406Z,22.30
2018-04-30T12:21:24.007Z,22.90
2018-04-30T12:23:51.571Z,22.80
2018-04-30T12:26:19.161Z,22.70
2018-04-30T12:28:49.525Z,22.30
2018-04-30T12:31:17.142Z,22.60
2018-04-30T12:33:44.761Z,22.00
2018-04-30T12:36:12.467Z,20.70
2018-04-30T12:38:40.026Z,20.10
2018-04-30T12:41:07.614Z,20.90
2018-04-30T12:43:35.196Z,20.50
2018-04-30T12:46:03.781Z,20.30
2018-04-30T12:48:31.349Z,20.90
2018-04-30T12:50:58.975Z,21.80
2018-04-30T12:53:26.652Z,21.80
2018-04-30T12:55:57.604Z,22.30
2018-04-30T12:58:28.602Z,22.00
2018-04-30T13:00:57.033Z,22.60
2018-04-30T13:03:24.605Z,22.60
2018-04-30T13:06:05.231Z,23.00
2018-04-30T13:08:32.854Z,23.30
2018-04-30T13:11:00.486Z,22.70
2018-04-30T13:13:38.709Z,21.20
2018-04-30T13:16:06.287Z,21.20
2018-04-30T13:18:33.917Z,20.60
2018-04-30T13:21:01.516Z,20.10
2018-04-30T13:23:29.125Z,20.00
2018-04-30T13:25:56.679Z,20.00
2018-04-30T13:28:24.280Z,19.90
2018-04-30T13:33:56.437Z,19.00
2018-04-30T13:36:24.011Z,18.60
2018-04-30T13:38:51.617Z,18.60
2018-04-30T13:41:19.166Z,18.60
2018-04-30T13:43:46.830Z,18.60
2018-04-30T13:46:15.117Z,18.50
2018-04-30T13:48:42.689Z,18.40
2018-04-30T13:51:10.318Z,18.40
2018-04-30T13:53:37.879Z,18.60
2018-04-30T13:56:05.529Z,18.60
2018-04-30T13:58:33.873Z,18.40
2018-04-30T14:01:01.461Z,18.40
2018-04-30T14:03:29.786Z,17.50
2018-04-30T14:05:57.395Z,17.40
2018-04-30T14:08:25.722Z,16.80
2018-04-30T14:10:53.293Z,16.80
2018-04-30T14:13:20.900Z,16.40
2018-04-30T14:15:48.510Z,15.30
2018-04-30T14:18:16.090Z,14.50
2018-04-30T14:20:43.670Z,13.70
2018-04-30T14:23:12.055Z,12.70
2018-04-30T14:25:39.644Z,12.70
2018-04-30T14:28:07.269Z,12.70
2018-04-30T14:30:35.627Z,13.10
2018-04-30T14:33:03.236Z,13.10
2018-04-30T14:35:30.856Z,13.40
2018-04-30T14:37:58.500Z,13.70
2018-04-30T14:40:26.118Z,14.00
2018-04-30T14:42:54.490Z,14.40
2018-04-30T14:45:22.089Z,14.40
2018-04-30T14:47:49.730Z,14.50
2018-04-30T14:50:17.627Z,14.70
2018-04-30T14:52:45.264Z,14.80
2018-04-30T14:55:12.851Z,14.90
2018-04-30T14:57:40.434Z,15.10
2018-04-30T15:00:08.842Z,15.50
2018-04-30T15:02:36.465Z,15.50
2018-04-30T15:05:04.112Z,15.70
2018-04-30T15:07:31.684Z,16.00
2018-04-30T15:09:59.286Z,16.40
2018-04-30T15:12:26.913Z,16.70
2018-04-30T15:14:55.262Z,17.20
2018-04-30T15:17:22.885Z,17.20
2018-04-30T15:19:50.477Z,17.00
2018-04-30T15:22:18.079Z,16.80
2018-04-30T15:24:45.677Z,16.60
2018-04-30T15:27:13.294Z,16.30
2018-04-30T15:29:41.642Z,16.00
2018-04-30T15:32:09.255Z,16.00
2018-04-30T15:34:36.907Z,15.90
2018-04-30T15:37:04.500Z,15.60
2018-04-30T15:39:32.086Z,15.40
2018-04-30T15:41:59.730Z,15.30
2018-04-30T15:44:28.055Z,15.30
2018-04-30T15:46:55.677Z,15.30
2018-04-30T15:49:33.029Z,15.40
2018-04-30T15:52:00.641Z,15.30
2018-04-30T15:54:28.200Z,15.50
2018-04-30T15:56:55.834Z,15.50
2018-04-30T16:02:27.608Z,14.80
2018-04-30T16:04:55.215Z,14.60
2018-04-30T16:07:22.841Z,14.50
2018-04-30T16:09:50.414Z,14.40
2018-04-30T16:12:17.968Z,14.40
2018-04-30T16:14:45.569Z,14.30
2018-04-30T16:17:13.182Z,14.20
2018-04-30T16:19:40.781Z,13.90
2018-04-30T16:22:09.129Z,13.20
2018-04-30T16:24:36.746Z,13.20
2018-04-30T16:27:04.334Z,12.90
2018-04-30T16:29:31.931Z,12.80
2018-04-30T16:31:59.510Z,12.70
2018-04-30T16:34:27.138Z,12.50
2018-04-30T16:36:54.701Z,12.50
2018-04-30T16:39:22.330Z,12.60
2018-04-30T16:41:50.664Z,12.80
2018-04-30T16:44:19.021Z,13.10
2018-04-30T16:46:46.629Z,13.10
2018-04-30T16:49:14.253Z,13.30
2018-04-30T16:51:41.891Z,13.20
2018-04-30T16:54:09.493Z,13.00
2018-04-30T16:56:37.120Z,12.60
2018-04-30T16:59:04.702Z,12.40
2018-04-30T17:01:33.060Z,12.50
2018-04-30T17:04:00.696Z,12.50
2018-04-30T17:06:28.314Z,12.70
2018-04-30T17:08:55.962Z,12.70
2018-04-30T17:11:24.350Z,12.50
2018-04-30T17:25:25.232Z,12.50
2018-04-30T17:27:52.811Z,12.50
2018-04-30T17:30:20.439Z,12.50
2018-04-30T17:32:48.037Z,12.50
2018-04-30T17:35:16.423Z,12.50
2018-04-30T17:37:44.869Z,12.50
2018-04-30T17:40:31.278Z,12.50
2018-04-30T17:42:58.926Z,12.50
2018-04-30T17:45:26.536Z,12.40
2018-04-30T17:50:48.027Z,12.40
2018-04-30T17:53:15.641Z,12.40
2018-04-30T17:55:56.728Z,12.40
2018-04-30T17:58:49.022Z,12.50
2018-04-30T18:01:28.300Z,12.60
2018-04-30T18:07:03.905Z,12.90
2018-04-30T18:09:57.121Z,12.90
2018-04-30T18:12:25.506Z,13.10
2018-04-30T18:14:53.195Z,13.10
2018-04-30T18:17:39.712Z,13.20
2018-04-30T18:20:07.302Z,13.20
2018-04-30T18:22:35.636Z,13.10
2018-04-30T18:25:03.258Z,13.10
2018-04-30T18:27:31.829Z,13.20
2018-04-30T18:30:00.355Z,13.30
2018-04-30T18:32:27.961Z,13.20
2018-04-30T18:34:56.306Z,13.30
2018-04-30T18:37:23.928Z,13.20
2018-04-30T18:39:51.523Z,13.20
2018-04-30T18:42:19.130Z,13.10
2018-04-30T18:44:47.535Z,13.00
2018-04-30T18:47:15.961Z,12.90
2018-04-30T18:49:43.545Z,12.90
2018-04-30T18:52:11.900Z,12.60
2018-04-30T18:54:39.505Z,12.60
2018-04-30T19:02:55.736Z,12.60
2018-04-30T19:05:23.338Z,12.70
2018-04-30T19:07:50.964Z,12.70
2018-04-30T19:10:18.599Z,12.70
2018-04-30T19:12:46.946Z,12.60
2018-04-30T19:15:14.584Z,12.60
2018-04-30T19:17:42.199Z,12.60
2018-04-30T19:20:10.650Z,12.60
2018-04-30T19:22:38.170Z,12.60
2018-04-30T19:25:05.764Z,12.60
2018-04-30T19:27:33.378Z,12.60
2018-04-30T19:30:01.010Z,12.60
2018-04-30T19:32:29.408Z,12.60
2018-04-30T19:34:56.978Z,12.60
2018-04-30T19:37:24.630Z,12.60
2018-04-30T19:39:52.199Z,12.60
2018-04-30T19:42:19.817Z,12.50
2018-04-30T19:44:47.398Z,12.50
2018-04-30T19:47:15.774Z,12.40
2018-04-30T19:49:44.139Z,12.30
2018-04-30T19:52:13.476Z,12.20
2018-04-30T19:54:41.035Z,12.20
2018-04-30T19:57:08.588Z,12.20
2018-04-30T19:59:36.149Z,12.10
2018-04-30T20:02:03.750Z,12.00
2018-04-30T20:04:31.394Z,11.90
2018-04-30T20:06:58.987Z,11.90
2018-04-30T20:09:26.615Z,11.80
2018-04-30T20:11:54.239Z,11.90
2018-04-30T20:14:43.004Z,11.90
2018-04-30T20:17:10.578Z,11.80
2018-04-30T20:19:38.122Z,11.80
2018-04-30T20:22:06.473Z,11.90
2018-04-30T20:24:34.054Z,11.90
2018-04-30T20:27:01.662Z,11.90
2018-04-30T20:29:29.298Z,12.00
2018-04-30T20:31:56.905Z,12.10
2018-04-30T20:34:24.502Z,12.20
2018-04-30T20:36:52.149Z,12.20
2018-04-30T20:39:20.522Z,12.10
2018-04-30T20:41:48.914Z,12.10
2018-04-30T20:44:17.273Z,12.10
2018-04-30T20:46:44.866Z,12.10
2018-04-30T20:49:12.466Z,12.10
2018-04-30T20:51:40.050Z,12.10
2018-04-30T20:54:07.672Z,12.10
2018-04-30T20:56:35.241Z,12.10
2018-04-30T20:59:02.862Z,12.00
2018-04-30T21:01:30.420Z,12.00
2018-04-30T21:03:58.001Z,12.00
2018-04-30T21:06:25.616Z,12.00
2018-04-30T21:09:05.836Z,11.90
2018-04-30T21:11:33.410Z,11.90
2018-04-30T21:14:01.015Z,11.80
2018-04-30T21:16:28.633Z,11.80
2018-04-30T21:18:56.204Z,11.70
2018-04-30T21:21:23.814Z,11.60
2018-04-30T21:23:51.402Z,11.50
2018-04-30T21:26:18.966Z,11.50
2018-04-30T21:28:46.579Z,11.40
2018-04-30T21:31:14.235Z,11.30
2018-04-30T21:33:42.551Z,11.20
2018-04-30T21:36:10.159Z,11.20
2018-04-30T21:38:37.788Z,11.10
2018-04-30T21:41:06.131Z,11.10
2018-04-30T21:43:33.690Z,11.10
2018-04-30T21:46:01.278Z,11.20
2018-04-30T21:48:28.899Z,11.20
2018-04-30T21:50:56.481Z,11.20
2018-04-30T21:53:24.869Z,11.20
2018-04-30T21:55:52.473Z,11.20
2018-04-30T21:58:20.078Z,11.20
2018-04-30T22:00:47.676Z,11.20
2018-04-30T22:03:15.279Z,11.20
2018-04-30T22:05:42.929Z,11.30
2018-04-30T22:08:11.316Z,11.30
2018-04-30T22:10:39.684Z,11.30
2018-04-30T22:13:08.073Z,11.30
2018-04-30T22:15:36.451Z,11.30
2018-04-30T22:18:04.851Z,11.30
2018-04-30T22:20:32.484Z,11.30
2018-04-30T22:23:00.845Z,11.30
2018-04-30T22:25:28.458Z,11.30
2018-04-30T22:27:56.103Z,11.30
2018-04-30T22:30:23.714Z,11.30
2018-04-30T22:32:51.321Z,11.30
2018-04-30T22:35:18.901Z,11.30
2018-04-30T22:37:46.513Z,11.30
2018-04-30T22:40:14.111Z,11.30
2018-04-30T22:42:41.685Z,11.30
2018-04-30T22:45:09.238Z,11.30
2018-04-30T22:47:36.854Z,11.20
2018-04-30T22:50:04.497Z,11.20
2018-04-30T22:52:32.097Z,11.20
2018-04-30T22:54:59.677Z,11.20
2018-04-30T22:57:27.298Z,11.20
2018-04-30T22:59:54.833Z,11.10
2018-04-30T23:02:22.417Z,11.20
2018-04-30T23:04:50.774Z,11.10
2018-04-30T23:07:18.346Z,11.10
2018-04-30T23:09:45.933Z,11.10
2018-04-30T23:12:14.322Z,11.10
2018-04-30T23:14:41.933Z,11.10
2018-04-30T23:17:09.566Z,11.10
2018-04-30T23:19:37.194Z,11.10
2018-04-30T23:22:05.540Z,11.10
2018-04-30T23:24:33.147Z,11.10
2018-04-30T23:27:00.755Z,11.10
2018-04-30T23:29:28.350Z,11.10
2018-04-30T23:31:56.716Z,11.10
2018-04-30T23:34:25.077Z,11.10
2018-04-30T23:36:52.678Z,11.10
2018-04-30T23:39:20.277Z,11.10
2018-04-30T23:41:47.857Z,11.10
2018-04-30T23:44:15.469Z,11.00
2018-04-30T23:46:43.046Z,11.00
2018-04-30T23:49:10.654Z,11.00
2018-04-30T23:51:38.986Z,10.90
2018-04-30T23:54:06.581Z,10.90
2018-04-30T23:56:34.219Z,10.90
2018-04-30T23:59:01.843Z,10.90
